createdAt,value
2023-03-23T17:02:03.759Z,15.82
2023-03-23T17:05:09.308Z,15.82
2023-03-23T17:08:12.725Z,15.80
2023-03-23T17:11:49.178Z,15.80
2023-03-23T17:19:20.774Z,15.81
2023-03-23T17:24:03.496Z,15.83
2023-03-23T17:31:43.405Z,15.78
2023-03-23T17:38:22.812Z,15.74
2023-03-23T17:42:07.210Z,15.75
2023-03-23T18:03:40.388Z,16.02
2023-03-23T18:10:49.274Z,16.05
2023-03-23T18:14:34.141Z,15.96
2023-03-23T18:22:42.599Z,15.83
2023-03-23T18:26:04.897Z,15.71
2023-03-23T18:30:16.021Z,15.68
2023-03-23T18:37:18.399Z,15.58
2023-03-23T18:40:39.755Z,15.56
2023-03-23T18:49:53.378Z,15.46
2023-03-23T18:52:28.780Z,15.42
2023-03-23T18:58:33.209Z,15.42
2023-03-23T19:01:38.103Z,15.47
2023-03-23T19:04:16.226Z,15.43
2023-03-23T19:06:53.558Z,15.36
2023-03-23T19:09:38.302Z,15.35
2023-03-23T19:12:08.073Z,15.30
2023-03-23T19:15:10.209Z,15.25
2023-03-23T19:17:43.495Z,15.18
2023-03-23T19:20:47.232Z,15.19
2023-03-23T19:23:12.605Z,15.16
2023-03-23T19:25:43.042Z,15.09
2023-03-23T19:31:09.015Z,15.06
2023-03-23T19:34:14.544Z,15.09
2023-03-23T19:37:05.771Z,15.03
2023-03-23T19:40:35.490Z,15.02
2023-03-23T19:43:10.292Z,14.94
2023-03-23T19:45:38.311Z,14.84
2023-03-23T19:48:10.164Z,14.89
2023-03-23T19:51:15.918Z,14.88
2023-03-23T19:54:03.157Z,14.86
2023-03-23T20:00:17.370Z,14.78
2023-03-23T20:02:53.322Z,14.74
2023-03-23T20:05:43.626Z,14.72
2023-03-23T20:15:07.346Z,14.89
2023-03-23T20:18:14.678Z,14.96
2023-03-23T20:20:58.154Z,14.96
2023-03-23T20:23:34.667Z,14.97
2023-03-23T20:26:20.428Z,15.05
2023-03-23T20:29:11.509Z,15.00
2023-03-23T20:32:16.734Z,15.00
2023-03-23T20:35:14.315Z,14.98
2023-03-23T20:38:15.802Z,14.94
2023-03-23T20:40:54.179Z,14.90
2023-03-23T20:43:34.336Z,14.87
2023-03-23T20:46:14.779Z,14.83
2023-03-23T20:49:22.102Z,14.88
2023-03-23T20:52:33.269Z,14.78
2023-03-23T20:55:12.907Z,14.79
2023-03-23T20:57:57.983Z,14.81
2023-03-23T21:03:44.001Z,14.79
2023-03-23T21:06:16.997Z,14.86
2023-03-23T21:09:08.920Z,14.88
2023-03-23T21:12:20.093Z,14.89
2023-03-23T21:14:55.019Z,14.82
2023-03-23T21:17:36.791Z,14.80
2023-03-23T21:20:16.989Z,14.87
2023-03-23T21:23:00.096Z,14.84
2023-03-23T21:25:45.563Z,14.89
2023-03-23T21:28:29.636Z,14.84
2023-03-23T21:31:13.001Z,14.90
2023-03-23T21:33:53.488Z,14.90
2023-03-23T21:37:05.626Z,14.89
2023-03-23T21:39:55.615Z,14.89
2023-03-23T21:42:31.770Z,14.86
2023-03-23T21:45:16.865Z,14.83
2023-03-23T21:48:02.644Z,14.83
2023-03-23T21:50:52.955Z,14.78
2023-03-23T21:53:40.306Z,14.81
2023-03-23T21:56:19.520Z,14.81
2023-03-23T21:59:16.178Z,14.81
2023-03-23T22:02:15.182Z,14.70
2023-03-23T22:04:55.785Z,14.80
2023-03-23T22:07:57.525Z,14.75
2023-03-23T22:11:02.334Z,14.77
2023-03-23T22:14:46.728Z,14.75
2023-03-23T22:17:48.901Z,14.60
2023-03-23T22:20:38.745Z,14.62
2023-03-23T22:23:43.187Z,14.63
2023-03-23T22:26:18.510Z,14.58
2023-03-23T22:28:53.158Z,14.64
2023-03-23T22:31:50.804Z,14.63
2023-03-23T22:34:59.058Z,14.68
2023-03-23T22:38:09.514Z,14.66
2023-03-23T22:41:46.484Z,14.61
2023-03-23T22:44:36.779Z,14.55
2023-03-23T23:01:46.534Z,14.34
2023-03-23T23:04:27.173Z,14.28
2023-03-23T23:07:12.768Z,14.25
2023-03-23T23:10:02.140Z,14.27
2023-03-23T23:13:07.270Z,14.22
2023-03-23T23:15:53.258Z,14.21
2023-03-23T23:18:45.897Z,14.16
2023-03-23T23:21:45.232Z,14.17
2023-03-23T23:24:21.465Z,14.14
2023-03-23T23:27:35.310Z,14.17
2023-03-23T23:30:16.702Z,14.10
2023-03-23T23:32:52.563Z,14.06
2023-03-23T23:35:56.965Z,14.06
2023-03-23T23:38:45.149Z,14.01
2023-03-23T23:41:37.043Z,13.99
2023-03-23T23:45:07.162Z,13.93
2023-03-23T23:48:06.019Z,13.89
2023-03-23T23:50:53.259Z,13.89
2023-03-23T23:53:59.434Z,13.89
2023-03-23T23:56:59.384Z,13.86
